sensor_id;sensor_type;location;lat;lon;timestamp;temperature;humidity
46400;DHT22;32104;50.838;4.388;2023-05-18T00:04:56;10.10;99.90
46400;DHT22;32104;50.838;4.388;2023-05-18T00:10:29;10.30;99.90
46400;DHT22;32104;50.838;4.388;2023-05-18T00:12:55;10.20;99.90
46400;DHT22;32104;50.838;4.388;2023-05-18T00:15:41;10.10;99.90
46400;DHT22;32104;50.838;4.388;2023-05-18T00:18:14;10.20;99.90
46400;DHT22;32104;50.838;4.388;2023-05-18T00:20:42;10.30;99.90
46400;DHT22;32104;50.838;4.388;2023-05-18T00:23:12;10.20;99.90
46400;DHT22;32104;50.838;4.388;2023-05-18T00:25:41;10.00;99.90
46400;DHT22;32104;50.838;4.388;2023-05-18T00:28:07;9.90;99.90
46400;DHT22;32104;50.838;4.388;2023-05-18T00:30:39;9.80;99.90
46400;DHT22;32104;50.838;4.388;2023-05-18T00:33:05;9.70;99.90
46400;DHT22;32104;50.838;4.388;2023-05-18T00:35:30;9.80;99.90
46400;DHT22;32104;50.838;4.388;2023-05-18T00:37:56;9.70;99.90
46400;DHT22;32104;50.838;4.388;2023-05-18T00:40:22;9.60;99.90
46400;DHT22;32104;50.838;4.388;2023-05-18T00:42:49;9.70;99.90
46400;DHT22;32104;50.838;4.388;2023-05-18T00:45:19;9.60;99.90
46400;DHT22;32104;50.838;4.388;2023-05-18T00:47:45;9.40;99.90
46400;DHT22;32104;50.838;4.388;2023-05-18T00:50:11;9.40;99.90
46400;DHT22;32104;50.838;4.388;2023-05-18T00:55:42;9.50;99.90
46400;DHT22;32104;50.838;4.388;2023-05-18T00:58:11;9.60;99.90
46400;DHT22;32104;50.838;4.388;2023-05-18T01:00:40;9.50;99.90
46400;DHT22;32104;50.838;4.388;2023-05-18T01:03:13;9.40;99.90
46400;DHT22;32104;50.838;4.388;2023-05-18T01:05:39;9.30;99.90
46400;DHT22;32104;50.838;4.388;2023-05-18T01:08:05;9.30;99.90
46400;DHT22;32104;50.838;4.388;2023-05-18T01:10:32;9.30;99.90
46400;DHT22;32104;50.838;4.388;2023-05-18T01:13:05;9.40;99.90
46400;DHT22;32104;50.838;4.388;2023-05-18T01:15:34;9.50;99.90
46400;DHT22;32104;50.838;4.388;2023-05-18T01:18:13;9.50;99.90
46400;DHT22;32104;50.838;4.388;2023-05-18T01:28:24;9.40;99.90
46400;DHT22;32104;50.838;4.388;2023-05-18T01:30:51;9.30;99.90
46400;DHT22;32104;50.838;4.388;2023-05-18T01:33:17;9.30;99.90
46400;DHT22;32104;50.838;4.388;2023-05-18T01:35:43;9.30;99.90
46400;DHT22;32104;50.838;4.388;2023-05-18T01:38:16;9.30;99.90
46400;DHT22;32104;50.838;4.388;2023-05-18T01:40:45;9.40;99.90
46400;DHT22;32104;50.838;4.388;2023-05-18T01:43:13;9.30;99.90
46400;DHT22;32104;50.838;4.388;2023-05-18T01:45:41;9.30;99.90
46400;DHT22;32104;50.838;4.388;2023-05-18T01:48:09;9.30;99.90
46400;DHT22;32104;50.838;4.388;2023-05-18T01:50:37;9.20;99.90
46400;DHT22;32104;50.838;4.388;2023-05-18T01:55:30;9.20;99.90
46400;DHT22;32104;50.838;4.388;2023-05-18T01:57:56;9.00;99.90
46400;DHT22;32104;50.838;4.388;2023-05-18T02:03:32;9.00;99.90
46400;DHT22;32104;50.838;4.388;2023-05-18T02:05:58;8.90;99.90
46400;DHT22;32104;50.838;4.388;2023-05-18T02:08:26;8.80;99.90
46400;DHT22;32104;50.838;4.388;2023-05-18T02:10:53;8.80;99.90
46400;DHT22;32104;50.838;4.388;2023-05-18T02:13:23;8.90;99.90
46400;DHT22;32104;50.838;4.388;2023-05-18T02:15:51;8.90;99.90
46400;DHT22;32104;50.838;4.388;2023-05-18T02:18:17;8.80;99.90
46400;DHT22;32104;50.838;4.388;2023-05-18T02:20:43;8.80;99.90
46400;DHT22;32104;50.838;4.388;2023-05-18T02:23:20;8.80;99.90
46400;DHT22;32104;50.838;4.388;2023-05-18T02:25:45;8.90;99.90
46400;DHT22;32104;50.838;4.388;2023-05-18T02:28:12;8.80;99.90
46400;DHT22;32104;50.838;4.388;2023-05-18T02:30:38;8.80;99.90
46400;DHT22;32104;50.838;4.388;2023-05-18T02:33:03;8.60;99.90
46400;DHT22;32104;50.838;4.388;2023-05-18T02:35:29;8.70;99.90
46400;DHT22;32104;50.838;4.388;2023-05-18T02:37:59;8.70;99.90
46400;DHT22;32104;50.838;4.388;2023-05-18T02:40:24;8.60;99.90
46400;DHT22;32104;50.838;4.388;2023-05-18T02:42:50;8.60;99.90
46400;DHT22;32104;50.838;4.388;2023-05-18T02:45:17;8.50;99.90
46400;DHT22;32104;50.838;4.388;2023-05-18T02:47:49;8.50;99.90
46400;DHT22;32104;50.838;4.388;2023-05-18T02:50:15;8.30;99.90
46400;DHT22;32104;50.838;4.388;2023-05-18T02:52:41;8.40;99.90
46400;DHT22;32104;50.838;4.388;2023-05-18T02:55:06;8.40;99.90
46400;DHT22;32104;50.838;4.388;2023-05-18T02:57:33;8.40;99.90
46400;DHT22;32104;50.838;4.388;2023-05-18T02:59:58;8.40;99.90
46400;DHT22;32104;50.838;4.388;2023-05-18T03:02:26;8.40;99.90
46400;DHT22;32104;50.838;4.388;2023-05-18T03:04:52;8.50;99.90
46400;DHT22;32104;50.838;4.388;2023-05-18T03:07:24;8.60;99.90
46400;DHT22;32104;50.838;4.388;2023-05-18T03:09:52;8.50;99.90
46400;DHT22;32104;50.838;4.388;2023-05-18T03:12:18;8.60;99.90
46400;DHT22;32104;50.838;4.388;2023-05-18T03:14:44;8.50;99.90
46400;DHT22;32104;50.838;4.388;2023-05-18T03:17:10;8.40;99.90
46400;DHT22;32104;50.838;4.388;2023-05-18T03:19:35;8.40;99.90
46400;DHT22;32104;50.838;4.388;2023-05-18T03:22:01;8.40;99.90
46400;DHT22;32104;50.838;4.388;2023-05-18T03:24:28;8.40;99.90
46400;DHT22;32104;50.838;4.388;2023-05-18T03:26:54;8.30;99.90
46400;DHT22;32104;50.838;4.388;2023-05-18T03:29:21;8.30;99.90
46400;DHT22;32104;50.838;4.388;2023-05-18T03:31:47;8.30;99.90
46400;DHT22;32104;50.838;4.388;2023-05-18T03:34:13;8.30;99.90
46400;DHT22;32104;50.838;4.388;2023-05-18T03:36:43;8.20;99.90
46400;DHT22;32104;50.838;4.388;2023-05-18T03:39:11;8.20;99.90
46400;DHT22;32104;50.838;4.388;2023-05-18T03:41:37;8.10;99.90
46400;DHT22;32104;50.838;4.388;2023-05-18T03:44:02;8.10;99.90
46400;DHT22;32104;50.838;4.388;2023-05-18T03:46:28;8.10;99.90
46400;DHT22;32104;50.838;4.388;2023-05-18T03:48:54;8.10;99.90
46400;DHT22;32104;50.838;4.388;2023-05-18T03:51:19;8.10;99.90
46400;DHT22;32104;50.838;4.388;2023-05-18T03:53:46;8.10;99.90
46400;DHT22;32104;50.838;4.388;2023-05-18T03:56:12;8.20;99.90
46400;DHT22;32104;50.838;4.388;2023-05-18T03:58:38;8.10;99.90
46400;DHT22;32104;50.838;4.388;2023-05-18T04:01:06;7.90;99.90
46400;DHT22;32104;50.838;4.388;2023-05-18T04:03:32;7.90;99.90
46400;DHT22;32104;50.838;4.388;2023-05-18T04:05:58;7.90;99.90
46400;DHT22;32104;50.838;4.388;2023-05-18T04:08:24;7.90;99.90
46400;DHT22;32104;50.838;4.388;2023-05-18T04:10:52;8.10;99.90
46400;DHT22;32104;50.838;4.388;2023-05-18T04:13:17;8.20;99.90
46400;DHT22;32104;50.838;4.388;2023-05-18T04:15:43;8.20;99.90
46400;DHT22;32104;50.838;4.388;2023-05-18T04:18:09;8.20;99.90
46400;DHT22;32104;50.838;4.388;2023-05-18T04:20:35;8.20;99.90
46400;DHT22;32104;50.838;4.388;2023-05-18T04:23:02;8.10;99.90
46400;DHT22;32104;50.838;4.388;2023-05-18T04:25:31;8.10;99.90
46400;DHT22;32104;50.838;4.388;2023-05-18T04:27:58;8.00;99.90
46400;DHT22;32104;50.838;4.388;2023-05-18T04:30:25;8.00;99.90
46400;DHT22;32104;50.838;4.388;2023-05-18T04:32:50;8.10;99.90
46400;DHT22;32104;50.838;4.388;2023-05-18T04:35:16;8.20;99.90
46400;DHT22;32104;50.838;4.388;2023-05-18T04:37:42;8.30;99.90
46400;DHT22;32104;50.838;4.388;2023-05-18T04:40:08;8.20;99.90
46400;DHT22;32104;50.838;4.388;2023-05-18T04:42:44;8.20;99.90
46400;DHT22;32104;50.838;4.388;2023-05-18T04:45:15;8.30;99.90
46400;DHT22;32104;50.838;4.388;2023-05-18T04:47:42;8.30;99.90
46400;DHT22;32104;50.838;4.388;2023-05-18T04:50:16;8.30;99.90
46400;DHT22;32104;50.838;4.388;2023-05-18T04:52:42;8.40;99.90
46400;DHT22;32104;50.838;4.388;2023-05-18T04:55:16;8.50;99.90
46400;DHT22;32104;50.838;4.388;2023-05-18T04:57:47;8.50;99.90
46400;DHT22;32104;50.838;4.388;2023-05-18T05:00:13;8.50;99.90
46400;DHT22;32104;50.838;4.388;2023-05-18T05:02:39;8.40;99.90
46400;DHT22;32104;50.838;4.388;2023-05-18T05:05:05;8.30;99.90
46400;DHT22;32104;50.838;4.388;2023-05-18T05:07:31;8.30;99.90
46400;DHT22;32104;50.838;4.388;2023-05-18T05:09:56;8.50;99.90
46400;DHT22;32104;50.838;4.388;2023-05-18T05:12:22;8.60;99.90
46400;DHT22;32104;50.838;4.388;2023-05-18T05:14:47;8.70;99.90
46400;DHT22;32104;50.838;4.388;2023-05-18T05:17:13;8.80;99.90
46400;DHT22;32104;50.838;4.388;2023-05-18T05:19:39;8.90;99.90
46400;DHT22;32104;50.838;4.388;2023-05-18T05:22:09;9.00;99.90
46400;DHT22;32104;50.838;4.388;2023-05-18T05:24:35;9.00;99.90
46400;DHT22;32104;50.838;4.388;2023-05-18T05:27:01;9.00;99.90
46400;DHT22;32104;50.838;4.388;2023-05-18T05:29:26;9.00;99.90
46400;DHT22;32104;50.838;4.388;2023-05-18T05:31:52;9.00;99.90
46400;DHT22;32104;50.838;4.388;2023-05-18T05:34:17;8.90;99.90
46400;DHT22;32104;50.838;4.388;2023-05-18T05:36:43;9.00;99.90
46400;DHT22;32104;50.838;4.388;2023-05-18T05:39:10;9.00;99.90
46400;DHT22;32104;50.838;4.388;2023-05-18T05:41:40;9.00;99.90
46400;DHT22;32104;50.838;4.388;2023-05-18T05:44:06;8.90;99.90
46400;DHT22;32104;50.838;4.388;2023-05-18T05:46:31;8.80;99.90
46400;DHT22;32104;50.838;4.388;2023-05-18T05:48:57;8.70;99.90
46400;DHT22;32104;50.838;4.388;2023-05-18T05:51:22;8.90;99.90
46400;DHT22;32104;50.838;4.388;2023-05-18T05:53:48;8.90;99.90
46400;DHT22;32104;50.838;4.388;2023-05-18T05:56:14;8.90;99.90
46400;DHT22;32104;50.838;4.388;2023-05-18T05:58:40;9.30;99.90
46400;DHT22;32104;50.838;4.388;2023-05-18T06:01:06;9.40;99.90
46400;DHT22;32104;50.838;4.388;2023-05-18T06:03:33;9.40;99.90
46400;DHT22;32104;50.838;4.388;2023-05-18T06:05:58;9.40;99.90
46400;DHT22;32104;50.838;4.388;2023-05-18T06:08:24;9.40;99.90
46400;DHT22;32104;50.838;4.388;2023-05-18T06:10:50;9.30;99.90
46400;DHT22;32104;50.838;4.388;2023-05-18T06:13:15;9.30;99.90
46400;DHT22;32104;50.838;4.388;2023-05-18T06:15:41;9.30;99.90
46400;DHT22;32104;50.838;4.388;2023-05-18T06:18:11;9.40;99.90
46400;DHT22;32104;50.838;4.388;2023-05-18T06:20:37;9.50;99.90
46400;DHT22;32104;50.838;4.388;2023-05-18T06:23:03;9.40;99.90
46400;DHT22;32104;50.838;4.388;2023-05-18T06:25:28;9.20;99.90
46400;DHT22;32104;50.838;4.388;2023-05-18T06:27:57;9.20;99.90
46400;DHT22;32104;50.838;4.388;2023-05-18T06:30:23;9.30;99.90
46400;DHT22;32104;50.838;4.388;2023-05-18T06:32:49;9.60;99.90
46400;DHT22;32104;50.838;4.388;2023-05-18T06:35:15;9.80;99.90
46400;DHT22;32104;50.838;4.388;2023-05-18T06:37:41;9.90;99.90
46400;DHT22;32104;50.838;4.388;2023-05-18T06:40:06;10.10;99.90
46400;DHT22;32104;50.838;4.388;2023-05-18T06:42:33;9.90;99.90
46400;DHT22;32104;50.838;4.388;2023-05-18T06:44:58;10.00;99.90
46400;DHT22;32104;50.838;4.388;2023-05-18T06:47:24;10.00;99.90
46400;DHT22;32104;50.838;4.388;2023-05-18T06:49:50;9.90;99.90
46400;DHT22;32104;50.838;4.388;2023-05-18T06:52:15;9.80;99.90
46400;DHT22;32104;50.838;4.388;2023-05-18T06:54:42;10.00;99.90
46400;DHT22;32104;50.838;4.388;2023-05-18T06:57:09;9.80;99.90
46400;DHT22;32104;50.838;4.388;2023-05-18T06:59:34;9.80;99.90
46400;DHT22;32104;50.838;4.388;2023-05-18T07:02:00;10.10;99.90
46400;DHT22;32104;50.838;4.388;2023-05-18T07:04:26;10.30;99.90
46400;DHT22;32104;50.838;4.388;2023-05-18T07:06:52;10.30;99.90
46400;DHT22;32104;50.838;4.388;2023-05-18T07:09:23;10.30;99.90
46400;DHT22;32104;50.838;4.388;2023-05-18T07:11:49;10.50;99.90
46400;DHT22;32104;50.838;4.388;2023-05-18T07:14:15;10.70;99.90
46400;DHT22;32104;50.838;4.388;2023-05-18T07:16:42;10.70;99.90
46400;DHT22;32104;50.838;4.388;2023-05-18T07:19:11;10.80;99.90
46400;DHT22;32104;50.838;4.388;2023-05-18T07:21:37;10.90;99.90
46400;DHT22;32104;50.838;4.388;2023-05-18T07:24:02;11.00;99.90
46400;DHT22;32104;50.838;4.388;2023-05-18T07:26:31;11.00;99.90
46400;DHT22;32104;50.838;4.388;2023-05-18T07:28:57;11.10;99.90
46400;DHT22;32104;50.838;4.388;2023-05-18T07:31:23;11.20;99.90
46400;DHT22;32104;50.838;4.388;2023-05-18T07:33:49;11.30;99.90
46400;DHT22;32104;50.838;4.388;2023-05-18T07:36:15;11.40;99.90
46400;DHT22;32104;50.838;4.388;2023-05-18T07:38:41;11.60;99.90
46400;DHT22;32104;50.838;4.388;2023-05-18T07:41:09;11.70;99.90
46400;DHT22;32104;50.838;4.388;2023-05-18T07:43:35;11.70;99.90
46400;DHT22;32104;50.838;4.388;2023-05-18T07:46:07;11.80;99.90
46400;DHT22;32104;50.838;4.388;2023-05-18T07:48:32;11.80;99.90
46400;DHT22;32104;50.838;4.388;2023-05-18T07:50:58;12.00;99.90
46400;DHT22;32104;50.838;4.388;2023-05-18T07:53:24;12.20;99.90
46400;DHT22;32104;50.838;4.388;2023-05-18T07:55:55;12.10;99.90
46400;DHT22;32104;50.838;4.388;2023-05-18T07:58:28;12.00;99.90
46400;DHT22;32104;50.838;4.388;2023-05-18T08:00:57;11.80;99.90
46400;DHT22;32104;50.838;4.388;2023-05-18T08:03:22;12.00;99.90
46400;DHT22;32104;50.838;4.388;2023-05-18T08:05:48;12.30;99.90
46400;DHT22;32104;50.838;4.388;2023-05-18T08:08:19;12.50;99.90
46400;DHT22;32104;50.838;4.388;2023-05-18T08:10:46;12.60;99.90
46400;DHT22;32104;50.838;4.388;2023-05-18T08:13:17;12.70;99.90
46400;DHT22;32104;50.838;4.388;2023-05-18T08:15:52;12.80;99.90
46400;DHT22;32104;50.838;4.388;2023-05-18T08:18:18;13.00;99.90
46400;DHT22;32104;50.838;4.388;2023-05-18T08:20:44;13.00;99.90
46400;DHT22;32104;50.838;4.388;2023-05-18T08:23:09;12.90;99.90
46400;DHT22;32104;50.838;4.388;2023-05-18T08:25:35;12.80;99.90
46400;DHT22;32104;50.838;4.388;2023-05-18T08:28:03;12.80;99.90
46400;DHT22;32104;50.838;4.388;2023-05-18T08:30:35;12.80;99.90
46400;DHT22;32104;50.838;4.388;2023-05-18T08:33:03;12.90;99.90
46400;DHT22;32104;50.838;4.388;2023-05-18T08:35:29;13.20;99.90
46400;DHT22;32104;50.838;4.388;2023-05-18T08:38:02;13.50;99.90
46400;DHT22;32104;50.838;4.388;2023-05-18T08:40:31;12.80;99.90
46400;DHT22;32104;50.838;4.388;2023-05-18T08:43:01;12.60;99.90
46400;DHT22;32104;50.838;4.388;2023-05-18T08:47:56;12.80;99.90
46400;DHT22;32104;50.838;4.388;2023-05-18T08:50:26;12.80;99.90
46400;DHT22;32104;50.838;4.388;2023-05-18T08:53:03;12.80;99.90
46400;DHT22;32104;50.838;4.388;2023-05-18T08:55:30;12.80;99.90
46400;DHT22;32104;50.838;4.388;2023-05-18T08:58:01;13.00;99.90
46400;DHT22;32104;50.838;4.388;2023-05-18T09:00:27;13.20;99.90
46400;DHT22;32104;50.838;4.388;2023-05-18T09:02:53;13.00;99.90
46400;DHT22;32104;50.838;4.388;2023-05-18T09:05:20;13.20;99.90
46400;DHT22;32104;50.838;4.388;2023-05-18T09:07:48;13.80;99.90
46400;DHT22;32104;50.838;4.388;2023-05-18T09:10:17;13.90;99.90
46400;DHT22;32104;50.838;4.388;2023-05-18T09:12:43;13.80;99.90
46400;DHT22;32104;50.838;4.388;2023-05-18T09:15:14;13.80;99.90
46400;DHT22;32104;50.838;4.388;2023-05-18T09:17:43;13.80;99.90
46400;DHT22;32104;50.838;4.388;2023-05-18T09:20:10;13.80;99.90
46400;DHT22;32104;50.838;4.388;2023-05-18T09:22:39;14.10;99.90
46400;DHT22;32104;50.838;4.388;2023-05-18T09:25:09;14.40;99.90
46400;DHT22;32104;50.838;4.388;2023-05-18T09:27:38;14.50;99.90
46400;DHT22;32104;50.838;4.388;2023-05-18T09:30:08;14.50;99.90
46400;DHT22;32104;50.838;4.388;2023-05-18T09:32:39;14.50;99.90
46400;DHT22;32104;50.838;4.388;2023-05-18T09:35:05;14.60;99.90
46400;DHT22;32104;50.838;4.388;2023-05-18T09:37:31;14.60;99.90
46400;DHT22;32104;50.838;4.388;2023-05-18T09:40:02;14.50;99.90
46400;DHT22;32104;50.838;4.388;2023-05-18T09:43:02;14.60;99.90
46400;DHT22;32104;50.838;4.388;2023-05-18T09:45:23;14.80;99.90
46400;DHT22;32104;50.838;4.388;2023-05-18T09:47:51;15.10;99.90
46400;DHT22;32104;50.838;4.388;2023-05-18T09:50:33;15.40;99.90
46400;DHT22;32104;50.838;4.388;2023-05-18T09:52:59;15.30;99.90
46400;DHT22;32104;50.838;4.388;2023-05-18T09:55:25;15.00;99.90
46400;DHT22;32104;50.838;4.388;2023-05-18T09:57:52;14.90;99.90
46400;DHT22;32104;50.838;4.388;2023-05-18T10:00:20;14.60;99.90
46400;DHT22;32104;50.838;4.388;2023-05-18T10:02:47;14.50;99.90
46400;DHT22;32104;50.838;4.388;2023-05-18T10:05:23;14.50;99.90
46400;DHT22;32104;50.838;4.388;2023-05-18T10:07:54;14.60;99.90
46400;DHT22;32104;50.838;4.388;2023-05-18T10:10:26;14.80;99.90
46400;DHT22;32104;50.838;4.388;2023-05-18T10:13:11;15.10;99.90
46400;DHT22;32104;50.838;4.388;2023-05-18T10:15:52;15.10;99.90
46400;DHT22;32104;50.838;4.388;2023-05-18T10:18:23;15.30;99.90
46400;DHT22;32104;50.838;4.388;2023-05-18T10:20:56;15.20;99.90
46400;DHT22;32104;50.838;4.388;2023-05-18T10:23:25;15.40;99.90
46400;DHT22;32104;50.838;4.388;2023-05-18T10:25:52;15.40;99.90
46400;DHT22;32104;50.838;4.388;2023-05-18T10:28:21;15.50;99.90
46400;DHT22;32104;50.838;4.388;2023-05-18T10:30:52;15.70;99.90
46400;DHT22;32104;50.838;4.388;2023-05-18T10:33:21;15.90;99.90
46400;DHT22;32104;50.838;4.388;2023-05-18T10:35:51;16.20;99.90
46400;DHT22;32104;50.838;4.388;2023-05-18T10:38:33;16.20;99.90
46400;DHT22;32104;50.838;4.388;2023-05-18T10:41:04;15.80;99.90
46400;DHT22;32104;50.838;4.388;2023-05-18T10:43:30;15.80;99.90
46400;DHT22;32104;50.838;4.388;2023-05-18T10:45:58;16.10;99.90
46400;DHT22;32104;50.838;4.388;2023-05-18T10:48:25;16.20;99.90
46400;DHT22;32104;50.838;4.388;2023-05-18T10:50:52;16.40;99.90
46400;DHT22;32104;50.838;4.388;2023-05-18T10:53:25;16.30;99.90
46400;DHT22;32104;50.838;4.388;2023-05-18T10:55:51;16.30;99.90
46400;DHT22;32104;50.838;4.388;2023-05-18T10:58:18;16.50;99.90
46400;DHT22;32104;50.838;4.388;2023-05-18T11:00:51;16.70;99.90
46400;DHT22;32104;50.838;4.388;2023-05-18T11:03:27;16.80;99.90
46400;DHT22;32104;50.838;4.388;2023-05-18T11:06:03;16.70;99.90
46400;DHT22;32104;50.838;4.388;2023-05-18T11:08:33;16.60;99.90
46400;DHT22;32104;50.838;4.388;2023-05-18T11:11:03;17.00;99.90
46400;DHT22;32104;50.838;4.388;2023-05-18T11:13:32;17.30;99.90
46400;DHT22;32104;50.838;4.388;2023-05-18T11:18:45;17.10;99.90
46400;DHT22;32104;50.838;4.388;2023-05-18T11:26:37;17.20;99.90
46400;DHT22;32104;50.838;4.388;2023-05-18T11:29:14;17.00;99.90
46400;DHT22;32104;50.838;4.388;2023-05-18T11:31:43;16.60;99.90
46400;DHT22;32104;50.838;4.388;2023-05-18T11:37:01;16.40;99.90
46400;DHT22;32104;50.838;4.388;2023-05-18T11:39:30;16.40;99.90
46400;DHT22;32104;50.838;4.388;2023-05-18T11:42:00;16.30;99.90
46400;DHT22;32104;50.838;4.388;2023-05-18T11:44:29;16.20;99.90
46400;DHT22;32104;50.838;4.388;2023-05-18T11:47:07;16.20;99.90
46400;DHT22;32104;50.838;4.388;2023-05-18T11:49:41;16.40;99.90
46400;DHT22;32104;50.838;4.388;2023-05-18T11:52:20;16.60;99.90
46400;DHT22;32104;50.838;4.388;2023-05-18T11:54:49;16.80;99.90
46400;DHT22;32104;50.838;4.388;2023-05-18T11:57:16;16.60;99.90
46400;DHT22;32104;50.838;4.388;2023-05-18T11:59:43;16.30;99.90
46400;DHT22;32104;50.838;4.388;2023-05-18T12:02:09;16.20;99.90
46400;DHT22;32104;50.838;4.388;2023-05-18T12:04:46;16.20;99.90
46400;DHT22;32104;50.838;4.388;2023-05-18T12:07:12;16.40;99.90
46400;DHT22;32104;50.838;4.388;2023-05-18T12:09:43;15.90;99.90
46400;DHT22;32104;50.838;4.388;2023-05-18T12:12:16;15.70;99.90
46400;DHT22;32104;50.838;4.388;2023-05-18T12:14:54;15.90;99.90
46400;DHT22;32104;50.838;4.388;2023-05-18T12:17:20;16.00;99.90
46400;DHT22;32104;50.838;4.388;2023-05-18T12:19:47;16.20;99.90
46400;DHT22;32104;50.838;4.388;2023-05-18T12:22:17;16.20;99.90
46400;DHT22;32104;50.838;4.388;2023-05-18T12:24:45;16.20;99.90
46400;DHT22;32104;50.838;4.388;2023-05-18T12:27:12;16.10;99.90
46400;DHT22;32104;50.838;4.388;2023-05-18T12:29:38;16.40;99.90
46400;DHT22;32104;50.838;4.388;2023-05-18T12:32:08;16.50;99.90
46400;DHT22;32104;50.838;4.388;2023-05-18T12:34:37;16.60;99.90
46400;DHT22;32104;50.838;4.388;2023-05-18T12:37:04;16.50;99.90
46400;DHT22;32104;50.838;4.388;2023-05-18T12:39:30;16.50;99.90
46400;DHT22;32104;50.838;4.388;2023-05-18T12:42:08;16.40;99.90
46400;DHT22;32104;50.838;4.388;2023-05-18T12:44:34;16.30;99.90
46400;DHT22;32104;50.838;4.388;2023-05-18T12:47:18;16.70;99.90
46400;DHT22;32104;50.838;4.388;2023-05-18T12:49:47;16.80;99.90
46400;DHT22;32104;50.838;4.388;2023-05-18T12:52:19;17.00;99.90
46400;DHT22;32104;50.838;4.388;2023-05-18T12:57:15;17.00;99.90
46400;DHT22;32104;50.838;4.388;2023-05-18T12:59:47;17.10;99.90
46400;DHT22;32104;50.838;4.388;2023-05-18T13:02:28;17.00;99.90
46400;DHT22;32104;50.838;4.388;2023-05-18T13:05:01;17.20;99.90
46400;DHT22;32104;50.838;4.388;2023-05-18T13:07:27;17.00;99.90
46400;DHT22;32104;50.838;4.388;2023-05-18T13:09:53;17.10;99.90
46400;DHT22;32104;50.838;4.388;2023-05-18T13:17:38;17.50;99.90
46400;DHT22;32104;50.838;4.388;2023-05-18T13:20:15;17.20;99.90
46400;DHT22;32104;50.838;4.388;2023-05-18T13:22:43;16.80;99.90
46400;DHT22;32104;50.838;4.388;2023-05-18T13:25:09;17.00;99.90
46400;DHT22;32104;50.838;4.388;2023-05-18T13:27:38;17.20;99.90
46400;DHT22;32104;50.838;4.388;2023-05-18T13:30:04;17.40;99.90
46400;DHT22;32104;50.838;4.388;2023-05-18T13:32:30;17.50;99.90
46400;DHT22;32104;50.838;4.388;2023-05-18T13:34:56;17.80;99.90
46400;DHT22;32104;50.838;4.388;2023-05-18T13:37:21;17.70;99.90
46400;DHT22;32104;50.838;4.388;2023-05-18T13:39:47;17.60;99.90
46400;DHT22;32104;50.838;4.388;2023-05-18T13:42:13;17.60;99.90
46400;DHT22;32104;50.838;4.388;2023-05-18T13:44:38;17.60;99.90
46400;DHT22;32104;50.838;4.388;2023-05-18T13:47:04;17.60;99.90
46400;DHT22;32104;50.838;4.388;2023-05-18T13:49:30;17.50;99.90
46400;DHT22;32104;50.838;4.388;2023-05-18T13:51:56;17.40;99.90
46400;DHT22;32104;50.838;4.388;2023-05-18T13:54:24;17.30;99.90
46400;DHT22;32104;50.838;4.388;2023-05-18T13:56:52;17.20;99.90
46400;DHT22;32104;50.838;4.388;2023-05-18T13:59:18;17.10;99.90
46400;DHT22;32104;50.838;4.388;2023-05-18T14:01:48;17.10;99.90
46400;DHT22;32104;50.838;4.388;2023-05-18T14:04:18;16.90;99.90
46400;DHT22;32104;50.838;4.388;2023-05-18T14:06:44;17.00;99.90
46400;DHT22;32104;50.838;4.388;2023-05-18T14:09:10;16.90;99.90
46400;DHT22;32104;50.838;4.388;2023-05-18T14:11:36;17.00;99.90
46400;DHT22;32104;50.838;4.388;2023-05-18T14:14:04;16.90;99.90
46400;DHT22;32104;50.838;4.388;2023-05-18T14:16:29;17.00;99.90
46400;DHT22;32104;50.838;4.388;2023-05-18T14:18:55;16.90;99.90
46400;DHT22;32104;50.838;4.388;2023-05-18T14:21:24;16.90;99.90
46400;DHT22;32104;50.838;4.388;2023-05-18T14:23:52;17.00;99.90
46400;DHT22;32104;50.838;4.388;2023-05-18T14:26:19;17.10;99.90
46400;DHT22;32104;50.838;4.388;2023-05-18T14:28:48;17.40;99.90
46400;DHT22;32104;50.838;4.388;2023-05-18T14:31:17;17.50;99.90
46400;DHT22;32104;50.838;4.388;2023-05-18T14:33:51;17.70;99.90
46400;DHT22;32104;50.838;4.388;2023-05-18T14:36:21;17.70;99.90
46400;DHT22;32104;50.838;4.388;2023-05-18T14:38:47;17.70;99.90
46400;DHT22;32104;50.838;4.388;2023-05-18T14:41:13;17.70;99.70
46400;DHT22;32104;50.838;4.388;2023-05-18T14:43:43;17.50;99.90
46400;DHT22;32104;50.838;4.388;2023-05-18T14:46:14;16.80;99.90
46400;DHT22;32104;50.838;4.388;2023-05-18T14:48:41;16.90;99.90
46400;DHT22;32104;50.838;4.388;2023-05-18T14:51:07;16.80;99.90
46400;DHT22;32104;50.838;4.388;2023-05-18T14:53:35;17.10;99.90
46400;DHT22;32104;50.838;4.388;2023-05-18T14:56:04;17.20;99.90
46400;DHT22;32104;50.838;4.388;2023-05-18T14:58:34;16.90;99.90
46400;DHT22;32104;50.838;4.388;2023-05-18T15:01:00;16.90;99.90
46400;DHT22;32104;50.838;4.388;2023-05-18T15:03:28;16.60;99.90
46400;DHT22;32104;50.838;4.388;2023-05-18T15:05:58;16.70;99.90
46400;DHT22;32104;50.838;4.388;2023-05-18T15:08:24;16.80;99.90
46400;DHT22;32104;50.838;4.388;2023-05-18T15:10:50;16.60;99.90
46400;DHT22;32104;50.838;4.388;2023-05-18T15:13:20;16.40;99.90
46400;DHT22;32104;50.838;4.388;2023-05-18T15:15:53;16.30;99.90
46400;DHT22;32104;50.838;4.388;2023-05-18T15:18:23;16.20;99.90
46400;DHT22;32104;50.838;4.388;2023-05-18T15:20:56;16.40;99.90
46400;DHT22;32104;50.838;4.388;2023-05-18T15:23:23;16.60;99.90
46400;DHT22;32104;50.838;4.388;2023-05-18T15:25:51;16.80;99.90
46400;DHT22;32104;50.838;4.388;2023-05-18T15:28:17;16.90;99.90
46400;DHT22;32104;50.838;4.388;2023-05-18T15:30:43;17.10;99.90
46400;DHT22;32104;50.838;4.388;2023-05-18T15:33:08;17.30;99.90
46400;DHT22;32104;50.838;4.388;2023-05-18T15:35:38;17.20;99.90
46400;DHT22;32104;50.838;4.388;2023-05-18T15:38:04;17.10;99.90
46400;DHT22;32104;50.838;4.388;2023-05-18T15:40:35;17.10;99.90
46400;DHT22;32104;50.838;4.388;2023-05-18T15:43:24;17.10;99.90
46400;DHT22;32104;50.838;4.388;2023-05-18T15:48:33;17.10;99.90
46400;DHT22;32104;50.838;4.388;2023-05-18T15:56:37;16.90;99.90
46400;DHT22;32104;50.838;4.388;2023-05-18T15:59:03;17.10;99.90
46400;DHT22;32104;50.838;4.388;2023-05-18T16:01:31;17.00;99.90
46400;DHT22;32104;50.838;4.388;2023-05-18T16:03:59;17.00;99.90
46400;DHT22;32104;50.838;4.388;2023-05-18T16:06:25;17.30;99.90
46400;DHT22;32104;50.838;4.388;2023-05-18T16:08:51;17.40;99.90
46400;DHT22;32104;50.838;4.388;2023-05-18T16:11:19;17.30;99.90
46400;DHT22;32104;50.838;4.388;2023-05-18T16:13:50;17.40;99.90
46400;DHT22;32104;50.838;4.388;2023-05-18T16:16:23;17.30;99.90
46400;DHT22;32104;50.838;4.388;2023-05-18T16:18:51;17.20;99.90
46400;DHT22;32104;50.838;4.388;2023-05-18T16:21:17;17.30;99.90
46400;DHT22;32104;50.838;4.388;2023-05-18T16:23:44;17.20;99.80
46400;DHT22;32104;50.838;4.388;2023-05-18T16:26:11;17.40;99.90
46400;DHT22;32104;50.838;4.388;2023-05-18T16:28:37;17.40;99.90
46400;DHT22;32104;50.838;4.388;2023-05-18T16:31:11;17.50;99.20
46400;DHT22;32104;50.838;4.388;2023-05-18T16:33:40;17.40;98.80
46400;DHT22;32104;50.838;4.388;2023-05-18T16:36:07;17.30;98.90